LYBE/BEG METAR and TAF weather

Enter ICAO airport designator
Station Type Date Time Source
LYBE METAR 2019/04/22 16:00 UTC NOAA

LYBE 221600Z 10011KT CAVOK 22/06 Q1012 NOSIG


Station Type Date Time Source
LYBE Decoded METAR 2019/04/22 16:00 UTC NOAA

Beograd / Surcin, Serbia and Montenegro (LYBE) 44-49N 020-17E 99M
Apr 22, 2019 - 12:00 PM EDT / 2019.04.22 1600 UTC
Wind: from the E (100 degrees) at 13 MPH (11 KT):0
Visibility: greater than 7 mile(s):0
Temperature: 71 F (22 C)
Dew Point: 42 F (6 C)
Relative Humidity: 35%
Pressure (altimeter): 29.88 in. Hg (1012 hPa)
ob: LYBE 221600Z 10011KT CAVOK 22/06 Q1012 NOSIG
cycle: 16

Station Type Date Time Source
LYBE TAF 2019/04/22 12:21 UTC NOAA

TAF LYBE 221100Z 2212/2312 16007KT CAVOK TX23/2213Z TN09/2305Z
BECMG 2216/2218 16018KT
TEMPO 2303/2307 RA
TEMPO 2307/2312 16018G32KT

Example: see airport list